createdAt,value
2023-05-16T00:00:54.558Z,0.50
2023-05-16T00:05:56.845Z,0.55
2023-05-16T00:10:58.846Z,0.80
2023-05-16T00:16:02.823Z,0.80
2023-05-16T00:21:05.198Z,0.50
2023-05-16T00:26:07.127Z,0.40
2023-05-16T00:31:08.879Z,0.60
2023-05-16T00:36:10.845Z,0.50
2023-05-16T00:41:12.754Z,0.40
2023-05-16T00:46:14.738Z,0.55
2023-05-16T00:51:17.954Z,0.57
2023-05-16T00:56:21.762Z,0.50
2023-05-16T01:01:25.288Z,0.68
2023-05-16T01:06:27.238Z,0.40
2023-05-16T01:11:37.316Z,0.43
2023-05-16T01:17:05.514Z,0.95
2023-05-16T01:22:16.644Z,0.57
2023-05-16T01:27:19.173Z,0.30
2023-05-16T01:32:23.086Z,0.88
2023-05-16T01:37:31.949Z,0.63
2023-05-16T01:42:37.417Z,0.50
2023-05-16T01:47:45.291Z,0.52
2023-05-16T01:52:56.260Z,0.43
2023-05-16T01:58:00.032Z,0.40
2023-05-16T02:03:01.920Z,0.50
2023-05-16T02:08:04.664Z,0.47
2023-05-16T02:13:06.633Z,1.00
2023-05-16T02:18:09.660Z,0.40
2023-05-16T02:23:11.721Z,0.43
2023-05-16T02:28:13.559Z,0.40
2023-05-16T02:33:15.375Z,0.55
2023-05-16T02:38:17.801Z,0.40
2023-05-16T02:43:19.604Z,0.68
2023-05-16T02:48:21.421Z,0.50
2023-05-16T02:53:23.178Z,0.52
2023-05-16T02:58:24.978Z,0.95
2023-05-16T03:03:27.034Z,0.35
2023-05-16T03:08:28.887Z,0.50
2023-05-16T03:13:31.443Z,0.55
2023-05-16T03:18:33.510Z,0.50
2023-05-16T03:23:35.388Z,0.43
2023-05-16T03:28:37.610Z,0.60
2023-05-16T03:33:39.494Z,0.65
2023-05-16T03:38:41.370Z,0.47
2023-05-16T03:43:43.189Z,0.50
2023-05-16T03:48:45.205Z,0.50
2023-05-16T03:53:46.963Z,0.43
2023-05-16T03:58:48.948Z,0.50
2023-05-16T04:03:51.263Z,0.43
2023-05-16T04:08:53.130Z,0.70
2023-05-16T04:13:55.145Z,0.50
2023-05-16T04:18:57.308Z,0.40
2023-05-16T04:23:59.392Z,0.50
2023-05-16T04:29:01.491Z,0.80
2023-05-16T04:34:03.824Z,0.50
2023-05-16T04:39:06.526Z,0.30
2023-05-16T04:44:09.045Z,0.50
2023-05-16T04:49:11.588Z,0.30
2023-05-16T04:54:13.502Z,0.50
2023-05-16T04:59:15.448Z,0.30
2023-05-16T05:04:17.980Z,0.70
2023-05-16T05:09:19.884Z,0.55
2023-05-16T05:14:22.015Z,0.68
2023-05-16T05:19:23.913Z,0.43
2023-05-16T05:24:25.911Z,0.50
2023-05-16T05:29:27.853Z,0.47
2023-05-16T05:34:29.670Z,0.43
2023-05-16T05:39:31.499Z,0.68
2023-05-16T05:44:33.863Z,0.60
2023-05-16T05:49:36.216Z,0.60
2023-05-16T05:54:38.096Z,0.40
2023-05-16T05:59:40.161Z,0.43
2023-05-16T06:04:43.096Z,0.60
2023-05-16T06:09:45.066Z,0.88
2023-05-16T06:14:47.275Z,0.80
2023-05-16T06:19:49.149Z,0.93
2023-05-16T06:24:51.083Z,0.98
2023-05-16T06:29:52.967Z,1.02
2023-05-16T06:34:54.821Z,1.00
2023-05-16T06:39:56.688Z,0.80
2023-05-16T06:44:58.669Z,0.98
2023-05-16T06:50:00.580Z,0.63
2023-05-16T06:55:02.538Z,1.35
2023-05-16T07:00:05.086Z,1.58
2023-05-16T07:05:07.462Z,1.30
2023-05-16T07:10:09.710Z,0.73
2023-05-16T07:15:11.807Z,0.88
2023-05-16T07:20:15.056Z,1.17
2023-05-16T07:25:17.556Z,1.23
2023-05-16T07:30:19.580Z,1.50
2023-05-16T07:35:21.556Z,0.77
2023-05-16T07:40:28.543Z,1.15
2023-05-16T07:45:30.649Z,0.85
2023-05-16T07:50:32.706Z,0.93
2023-05-16T07:55:35.733Z,0.65
2023-05-16T08:00:37.658Z,1.20
2023-05-16T08:05:40.224Z,1.50
2023-05-16T08:10:42.232Z,1.15
2023-05-16T08:15:44.237Z,1.00
2023-05-16T08:20:46.292Z,1.15
2023-05-16T08:25:48.246Z,1.13
2023-05-16T08:30:50.357Z,1.10
2023-05-16T08:35:55.435Z,1.40
2023-05-16T08:40:57.435Z,1.05
2023-05-16T08:45:59.825Z,1.13
2023-05-16T08:51:03.612Z,0.70
2023-05-16T08:56:07.761Z,0.65
2023-05-16T09:01:10.369Z,0.85
2023-05-16T09:06:12.280Z,1.38
2023-05-16T09:11:14.248Z,0.90
2023-05-16T09:16:19.932Z,0.30
2023-05-16T09:21:21.908Z,0.88
2023-05-16T09:26:23.928Z,1.02
2023-05-16T09:31:28.059Z,0.75
2023-05-16T09:36:32.246Z,1.33
2023-05-16T09:41:35.783Z,0.45
2023-05-16T09:46:38.922Z,0.60
2023-05-16T09:51:41.649Z,0.35
2023-05-16T09:56:50.979Z,0.60
2023-05-16T10:01:53.600Z,0.60
2023-05-16T10:06:59.128Z,0.40
2023-05-16T10:12:08.629Z,0.65
2023-05-16T10:17:14.619Z,0.30
2023-05-16T10:22:18.172Z,0.68
2023-05-16T10:27:21.401Z,0.70
2023-05-16T10:32:25.866Z,0.40
2023-05-16T10:37:28.641Z,0.30
2023-05-16T10:42:32.688Z,0.35
2023-05-16T10:47:34.648Z,0.47
2023-05-16T10:52:36.639Z,0.45
2023-05-16T10:57:38.852Z,0.20
2023-05-16T11:02:42.421Z,0.35
2023-05-16T11:07:45.009Z,0.20
2023-05-16T11:12:50.216Z,0.40
2023-05-16T11:18:05.352Z,0.40
2023-05-16T11:23:22.435Z,0.60
2023-05-16T11:28:27.010Z,0.28
2023-05-16T11:33:34.559Z,0.30
2023-05-16T11:38:37.381Z,0.28
2023-05-16T11:43:43.808Z,0.50
2023-05-16T11:48:47.688Z,0.60
2023-05-16T11:53:50.391Z,0.40
2023-05-16T11:58:52.877Z,0.30
2023-05-16T12:03:59.707Z,0.50
2023-05-16T12:09:10.177Z,0.30
2023-05-16T12:14:13.566Z,0.30
2023-05-16T12:19:16.098Z,0.35
2023-05-16T12:24:18.063Z,0.40
2023-05-16T12:29:22.006Z,0.20
2023-05-16T12:34:24.577Z,0.30
2023-05-16T12:39:26.554Z,0.20
2023-05-16T12:44:30.577Z,0.40
2023-05-16T12:49:33.754Z,0.50
2023-05-16T12:54:35.721Z,0.30
2023-05-16T12:59:37.658Z,0.20
2023-05-16T13:04:39.628Z,0.30
2023-05-16T13:09:42.083Z,0.30
2023-05-16T13:14:45.424Z,0.40
2023-05-16T13:19:48.948Z,0.63
2023-05-16T13:24:51.006Z,0.77
2023-05-16T13:29:52.941Z,0.40
2023-05-16T13:34:55.422Z,0.68
2023-05-16T13:39:57.527Z,0.60
2023-05-16T13:44:59.467Z,0.82
2023-05-16T13:50:08.114Z,0.60
2023-05-16T13:55:10.404Z,0.25
2023-05-16T14:05:17.753Z,0.52
2023-05-16T14:10:19.702Z,0.60
2023-05-16T14:15:21.796Z,0.77
2023-05-16T14:20:23.879Z,0.52
2023-05-16T14:25:26.083Z,0.68
2023-05-16T14:30:28.387Z,0.40
2023-05-16T14:35:31.423Z,0.60
2023-05-16T14:40:34.537Z,0.73
2023-05-16T14:45:40.291Z,0.65
2023-05-16T14:50:42.352Z,0.70
2023-05-16T14:55:45.015Z,0.70
2023-05-16T15:00:47.017Z,0.40
2023-05-16T15:05:48.986Z,0.30
2023-05-16T15:10:51.160Z,0.65
2023-05-16T15:15:53.460Z,0.40
2023-05-16T15:20:55.495Z,0.40
2023-05-16T15:25:57.542Z,1.10
2023-05-16T15:30:59.469Z,1.83
2023-05-16T15:36:01.942Z,1.15
2023-05-16T15:46:15.809Z,1.65
2023-05-16T15:51:17.920Z,1.33
2023-05-16T15:56:19.869Z,2.00
2023-05-16T16:01:21.948Z,1.60
2023-05-16T16:06:23.869Z,1.15
2023-05-16T16:11:27.194Z,1.55
2023-05-16T16:16:29.145Z,1.38
2023-05-16T16:21:31.572Z,1.35
2023-05-16T16:26:33.549Z,1.25
2023-05-16T16:31:35.791Z,4.50
2023-05-16T16:36:37.915Z,2.20
2023-05-16T16:41:39.906Z,1.65
2023-05-16T16:46:41.913Z,2.33
2023-05-16T16:51:43.818Z,2.13
2023-05-16T16:56:47.005Z,1.02
2023-05-16T17:01:49.647Z,1.98
2023-05-16T17:06:51.742Z,1.45
2023-05-16T17:11:53.725Z,0.85
2023-05-16T17:16:55.644Z,0.90
2023-05-16T17:21:57.453Z,1.33
2023-05-16T17:26:59.359Z,0.50
2023-05-16T17:32:01.421Z,0.82
2023-05-16T17:37:05.509Z,0.55
2023-05-16T17:42:09.481Z,0.82
2023-05-16T17:47:11.742Z,0.60
2023-05-16T17:52:13.788Z,0.43
2023-05-16T17:57:15.924Z,0.63
2023-05-16T18:02:28.618Z,1.17
2023-05-16T18:07:30.520Z,0.90
2023-05-16T18:12:32.507Z,0.90
2023-05-16T18:17:34.897Z,0.77
2023-05-16T18:22:37.567Z,0.65
2023-05-16T18:27:39.696Z,0.80
2023-05-16T18:32:41.930Z,0.70
2023-05-16T18:37:44.598Z,1.00
2023-05-16T18:42:46.577Z,0.80
2023-05-16T18:47:48.702Z,0.82
2023-05-16T18:52:50.731Z,1.17
2023-05-16T18:57:52.765Z,0.60
2023-05-16T19:02:54.623Z,0.50
2023-05-16T19:07:56.884Z,0.40
2023-05-16T19:13:03.322Z,0.60
2023-05-16T19:18:06.655Z,0.60
2023-05-16T19:23:08.742Z,0.63
2023-05-16T19:28:11.003Z,0.57
2023-05-16T19:33:13.053Z,0.60
2023-05-16T19:38:14.989Z,0.50
2023-05-16T19:43:17.070Z,0.52
2023-05-16T19:48:19.064Z,0.45
2023-05-16T19:53:22.518Z,0.57
2023-05-16T19:58:24.444Z,0.57
2023-05-16T20:03:26.830Z,0.60
2023-05-16T20:08:29.064Z,0.40
2023-05-16T20:13:32.393Z,0.93
2023-05-16T20:18:34.501Z,0.50
2023-05-16T20:23:38.408Z,0.70
2023-05-16T20:28:40.678Z,0.65
2023-05-16T20:33:42.747Z,0.40
2023-05-16T20:38:44.772Z,0.30
2023-05-16T20:43:47.145Z,0.38
2023-05-16T20:48:49.044Z,0.77
2023-05-16T20:53:51.109Z,0.90
2023-05-16T20:58:52.971Z,0.73
2023-05-16T21:03:55.004Z,0.45
2023-05-16T21:08:57.087Z,0.50
2023-05-16T21:13:59.709Z,0.88
2023-05-16T21:19:04.649Z,0.30
2023-05-16T21:24:06.973Z,0.38
2023-05-16T21:29:08.929Z,0.35
2023-05-16T21:34:11.604Z,0.40
2023-05-16T21:39:13.592Z,0.60
2023-05-16T21:44:17.520Z,0.55
2023-05-16T21:49:19.433Z,0.70
2023-05-16T21:54:21.320Z,0.30
2023-05-16T21:59:23.673Z,0.40
2023-05-16T22:04:25.643Z,0.73
2023-05-16T22:09:27.890Z,0.30
2023-05-16T22:14:29.974Z,0.32
2023-05-16T22:19:32.001Z,0.50
2023-05-16T22:24:33.908Z,0.75
2023-05-16T22:29:38.556Z,0.40
2023-05-16T22:34:40.731Z,0.20
2023-05-16T22:39:42.547Z,0.30
2023-05-16T22:44:44.543Z,0.40
2023-05-16T22:49:46.391Z,0.50
2023-05-16T22:54:48.516Z,0.30
2023-05-16T22:59:50.434Z,0.45
2023-05-16T23:04:52.690Z,0.30
2023-05-16T23:09:54.747Z,0.20
2023-05-16T23:14:58.369Z,0.50
2023-05-16T23:20:00.466Z,0.43
2023-05-16T23:25:02.565Z,0.28
2023-05-16T23:30:04.939Z,0.50
2023-05-16T23:35:07.301Z,0.30
2023-05-16T23:40:09.818Z,0.40
2023-05-16T23:45:12.073Z,0.30
2023-05-16T23:50:15.736Z,0.50
2023-05-16T23:55:17.737Z,0.40
